createdAt,value
2023-03-17T00:03:51.389Z,21.8
2023-03-17T00:09:44.458Z,21.9
2023-03-17T00:15:21.332Z,21.9
2023-03-17T00:21:13.821Z,21.9
2023-03-17T00:27:07.508Z,21.9
2023-03-17T00:32:44.730Z,21.9
2023-03-17T00:38:05.779Z,21.9
2023-03-17T00:43:42.919Z,21.9
2023-03-17T00:49:35.681Z,21.9
2023-03-17T00:55:28.046Z,22
2023-03-17T01:01:05.632Z,22
2023-03-17T01:07:08.234Z,22.1
2023-03-17T01:12:44.572Z,22
2023-03-17T01:18:22.240Z,22.1
2023-03-17T01:24:14.794Z,22.1
2023-03-17T01:30:06.808Z,22.1
2023-03-17T01:35:44.559Z,22.1
2023-03-17T01:41:07.235Z,22.1
2023-03-17T01:47:00.377Z,22.1
2023-03-17T01:52:53.336Z,22.1
2023-03-17T01:58:29.908Z,22.1
2023-03-17T02:03:35.700Z,22.2
2023-03-17T02:09:41.715Z,22.1
2023-03-17T02:15:34.728Z,22.1
2023-03-17T02:21:27.183Z,22.1
2023-03-17T02:26:49.418Z,22.2
2023-03-17T02:32:26.529Z,22.2
2023-03-17T02:38:04.568Z,22.2
2023-03-17T02:43:42.271Z,22.2
2023-03-17T02:54:55.172Z,22.3
2023-03-17T03:00:33.036Z,22.3
2023-03-17T03:06:25.852Z,22.3
2023-03-17T03:12:18.702Z,22.3
2023-03-17T03:18:12.824Z,22.3
2023-03-17T03:24:05.333Z,22.3
2023-03-17T03:29:56.622Z,22.3
2023-03-17T03:35:35.004Z,22.3
2023-03-17T03:41:27.626Z,22.3
2023-03-17T03:47:02.608Z,22.3
2023-03-17T03:52:39.567Z,22.3
2023-03-17T03:58:31.900Z,22.3
2023-03-17T04:04:11.204Z,22.3
2023-03-17T04:09:47.254Z,22.3
2023-03-17T04:15:40.244Z,22.3
2023-03-17T04:21:32.740Z,22.3
2023-03-17T04:27:27.789Z,22.3
2023-03-17T04:33:21.833Z,22.4
2023-03-17T04:39:02.102Z,22.3
2023-03-17T04:44:55.445Z,22.4
2023-03-17T04:50:33.494Z,22.3
2023-03-17T04:56:14.349Z,22.3
2023-03-17T05:02:21.085Z,22.4
2023-03-17T05:08:43.770Z,22.4
2023-03-17T05:14:20.313Z,22.4
2023-03-17T05:20:12.973Z,22.4
2023-03-17T05:26:05.343Z,22.4
2023-03-17T05:31:58.496Z,22.4
2023-03-17T05:37:51.520Z,22.4
2023-03-17T05:43:46.100Z,22.3
2023-03-17T05:49:39.210Z,22.4
2023-03-17T05:55:33.900Z,22.4
2023-03-17T06:01:11.586Z,22.4
2023-03-17T06:07:04.467Z,22.4
2023-03-17T06:12:55.592Z,22.4
2023-03-17T06:18:48.496Z,22.4
2023-03-17T06:24:50.913Z,22.4
2023-03-17T06:30:42.939Z,22.4
2023-03-17T06:36:50.523Z,22.4
2023-03-17T06:42:44.456Z,22.4
2023-03-17T06:48:38.267Z,22.4
2023-03-17T06:54:31.501Z,22.4
2023-03-17T07:00:41.551Z,22.4
2023-03-17T07:06:34.484Z,22.4
2023-03-17T07:12:26.767Z,22.4
2023-03-17T07:18:20.038Z,22.4
2023-03-17T07:24:12.506Z,22.4
2023-03-17T07:30:05.228Z,22.4
2023-03-17T07:35:28.021Z,22.4
2023-03-17T07:41:05.414Z,22.4
2023-03-17T07:47:00.937Z,22.4
2023-03-17T07:53:05.142Z,22.4
2023-03-17T07:59:00.784Z,22.3
2023-03-17T08:05:10.656Z,22.4
2023-03-17T08:11:02.840Z,22.4
2023-03-17T08:16:55.822Z,22.4
2023-03-17T08:22:50.125Z,22.4
2023-03-17T08:28:45.834Z,22.4
2023-03-17T08:34:40.853Z,22.4
2023-03-17T08:40:20.174Z,22.4
2023-03-17T08:46:13.372Z,22.3
2023-03-17T08:51:50.721Z,22.4
2023-03-17T08:57:28.457Z,22.4
2023-03-17T09:03:22.369Z,22.4
2023-03-17T09:09:35.861Z,22.4
2023-03-17T09:15:38.407Z,22.4
2023-03-17T09:21:20.379Z,22.3
2023-03-17T09:27:13.567Z,22.4
2023-03-17T09:33:08.246Z,22.3
2023-03-17T09:38:33.966Z,22.4
2023-03-17T09:44:27.382Z,22.3
2023-03-17T09:50:21.072Z,22.3
2023-03-17T09:56:15.331Z,22.3
2023-03-17T10:02:07.720Z,22.2
2023-03-17T10:08:01.283Z,22.2
2023-03-17T10:14:06.312Z,22.2
2023-03-17T10:20:00.227Z,22.2
2023-03-17T10:25:25.264Z,22.2
2023-03-17T10:31:19.279Z,22.2
2023-03-17T10:37:12.739Z,22.2
2023-03-17T10:43:16.169Z,22.2
2023-03-17T10:49:09.450Z,22.2
2023-03-17T10:55:02.002Z,22.2
2023-03-17T11:00:55.944Z,22.2
2023-03-17T11:06:50.651Z,22.2
2023-03-17T11:12:43.120Z,22.2
2023-03-17T11:18:35.354Z,22.2
2023-03-17T11:24:28.525Z,22.2
2023-03-17T11:29:50.961Z,22.2
2023-03-17T11:35:43.835Z,22.2
2023-03-17T11:41:37.110Z,22.2
2023-03-17T11:47:29.750Z,22.2
2023-03-17T11:53:22.948Z,22.2
2023-03-17T11:59:15.648Z,22.2
2023-03-17T12:05:09.043Z,22.3
2023-03-17T12:11:01.066Z,22.2
2023-03-17T12:16:54.181Z,22.2
2023-03-17T12:22:49.505Z,22.2
2023-03-17T12:28:26.888Z,22.2
2023-03-17T12:34:19.717Z,22.1
2023-03-17T12:40:16.823Z,22.2
2023-03-17T12:46:10.688Z,22.2
2023-03-17T12:52:04.194Z,22.2
2023-03-17T12:57:56.400Z,22.2
2023-03-17T13:03:50.034Z,22.2
2023-03-17T13:09:47.769Z,22.2
2023-03-17T13:15:25.337Z,22.2
2023-03-17T13:21:18.405Z,22.2
2023-03-17T13:27:16.436Z,22.2
2023-03-17T13:33:11.595Z,22.2
2023-03-17T13:39:18.596Z,22.2
2023-03-17T13:45:28.318Z,22.2
2023-03-17T13:51:22.317Z,22.3
2023-03-17T13:57:20.625Z,22.3
2023-03-17T14:03:14.852Z,22.3
2023-03-17T14:09:08.198Z,22.2
2023-03-17T14:15:10.678Z,22.2
2023-03-17T14:20:48.910Z,22.2
2023-03-17T14:26:45.596Z,22.2
2023-03-17T14:32:41.466Z,22.2
2023-03-17T14:38:19.529Z,22.2
2023-03-17T14:44:12.546Z,22.2
2023-03-17T14:50:05.561Z,22.2
2023-03-17T14:55:58.640Z,22.2
2023-03-17T15:01:52.603Z,22.2
2023-03-17T15:07:48.274Z,22.2
2023-03-17T15:13:41.804Z,22.2
2023-03-17T15:19:35.107Z,22.2
2023-03-17T15:25:29.200Z,22.2
2023-03-17T15:31:28.524Z,22.2
2023-03-17T15:37:28.119Z,22.2
2023-03-17T15:43:21.566Z,22.2
2023-03-17T15:49:14.669Z,22.2
2023-03-17T15:55:08.154Z,22.2
2023-03-17T16:01:02.793Z,22.1
2023-03-17T16:06:54.953Z,22.1
2023-03-17T16:12:50.973Z,22.1
2023-03-17T16:18:56.367Z,22.1
2023-03-17T16:24:49.421Z,22.1
2023-03-17T16:30:53.608Z,22.1
2023-03-17T16:36:30.188Z,22.1
2023-03-17T16:42:23.539Z,22.1
2023-03-17T16:48:27.636Z,22.1
2023-03-17T16:54:04.785Z,22.1
2023-03-17T16:59:58.848Z,22.1
2023-03-17T17:05:21.661Z,22.1
2023-03-17T17:10:58.510Z,22.1
2023-03-17T17:16:35.480Z,22.1
2023-03-17T17:22:12.025Z,22.1
2023-03-17T17:27:50.995Z,22.1
2023-03-17T17:33:14.247Z,22.1
2023-03-17T17:39:06.499Z,22.1
2023-03-17T17:45:00.929Z,22.1
2023-03-17T17:50:40.007Z,22.1
2023-03-17T17:56:32.966Z,22.1
2023-03-17T18:02:09.744Z,22.2
2023-03-17T18:07:31.648Z,22.2
2023-03-17T18:13:09.275Z,22.1
2023-03-17T18:18:46.027Z,22.2
2023-03-17T18:24:38.805Z,21.9
2023-03-17T18:30:32.158Z,21.9
2023-03-17T18:36:10.475Z,22
2023-03-17T18:42:02.054Z,22
2023-03-17T18:53:00.918Z,22.1
2023-03-17T18:58:55.436Z,22.1
2023-03-17T19:04:48.432Z,22.1
2023-03-17T19:10:10.558Z,22.1
2023-03-17T19:16:02.802Z,22.1
2023-03-17T19:21:54.778Z,22.2
2023-03-17T19:27:31.391Z,22.2
2023-03-17T19:33:10.101Z,22.2
2023-03-17T19:39:04.462Z,22.2
2023-03-17T19:44:36.654Z,22.3
2023-03-17T19:49:58.589Z,22.3
2023-03-17T19:55:20.921Z,22.3
2023-03-17T20:00:58.147Z,22.3
2023-03-17T20:06:51.779Z,22.3
2023-03-17T20:12:44.536Z,22.3
2023-03-17T20:18:08.802Z,22.3
2023-03-17T20:23:30.483Z,22.3
2023-03-17T20:28:53.180Z,22.3
2023-03-17T20:34:30.464Z,22.3
2023-03-17T20:40:26.315Z,22.4
2023-03-17T20:46:18.402Z,22.4
2023-03-17T20:52:10.991Z,22.4
2023-03-17T20:58:07.022Z,22.4
2023-03-17T21:04:00.387Z,22.4
2023-03-17T21:09:52.736Z,22.4
2023-03-17T21:15:46.681Z,22.4
2023-03-17T21:21:27.781Z,22.4
2023-03-17T21:27:05.138Z,22.4
2023-03-17T21:32:26.353Z,22.5
2023-03-17T21:38:19.636Z,22.4
2023-03-17T21:44:15.287Z,22.5
2023-03-17T21:50:08.369Z,22.5
2023-03-17T21:56:02.139Z,22.5
2023-03-17T22:01:47.340Z,22.6
2023-03-17T22:07:10.139Z,22.6
2023-03-17T22:12:47.977Z,22.6
2023-03-17T22:18:10.539Z,22.6
2023-03-17T22:23:51.228Z,22.6
2023-03-17T22:29:44.450Z,22.6
2023-03-17T22:35:38.401Z,22.6
2023-03-17T22:41:32.851Z,22.6
2023-03-17T22:47:13.364Z,22.7
2023-03-17T22:52:35.058Z,22.7
2023-03-17T22:58:27.829Z,22.7
2023-03-17T23:04:20.681Z,22.7
2023-03-17T23:10:07.409Z,22.7
2023-03-17T23:16:00.450Z,22.7
2023-03-17T23:21:54.323Z,22.7
2023-03-17T23:27:46.244Z,22.7
2023-03-17T23:33:24.811Z,22.8
2023-03-17T23:39:18.354Z,22.8
2023-03-17T23:44:55.910Z,22.8
2023-03-17T23:50:34.217Z,22.8
2023-03-17T23:56:11.268Z,22.8
